<<    November 2013    >>
Datum    Temp.       Tempmin      Tempmax    Taup.       Taup.min      Taup.max    Feuchte    Feuchtemin    Feuchtemax    Druck    Druckmin    Druckmax    Regen    Wind    Benmax  
  01.11.2013  10,5    8,8    23:48    11,8    13:17  8,5    5,4    00:13    11,5    15:48  88,0    72    00:00    98    23:59  1015,9    1008    23:42    1021    00:00  6,6  2,2  11,9  
  02.11.2013  11,7    8,8    00:00    15,1    15:36  11,3    8,5    00:00    14,8    15:36  97,8    94    17:23    98    00:00  1003,0    1001    23:59    1008    00:00  8,7  1,6  11,5  
  03.11.2013  9,5    7,5    07:36    12,7    00:23  5,9    2,8    14:58    11,8    00:15  79,3    58    13:10    97    02:54  1003,2    1000    00:11    1006    19:11  2,7  4,0  16,9  
  04.11.2013  10,0    6,2    20:51    15,9    13:05  7,4    4,1    00:06    11,1    14:50  84,8    58    13:08    98    15:35  991,2    984    13:10    1002    00:00  8,5  4,4  20,5  
  05.11.2013  7,2    4,7    07:53    10,2    11:24  5,4    2,4    14:00    9,0    23:07  89,0    63    12:00    98    17:14  997,1    991    19:41    1000    02:56  9,6  3,5  16,2  
  06.11.2013  10,4    8,3    01:07    14,0    23:45  8,8    6,3    02:10    13,5    23:05  90,0    72    11:43    98    17:00  1001,7    996    00:00    1004    23:59  5,7  3,1  11,9  
  07.11.2013  13,9    11,4    23:59    15,9    10:44  12,0    11,1    23:59    13,3    13:10  89,2    79    06:39    98    15:25  1006,1    1003    00:12    1009    15:56  7,6  2,9  16,6  
  08.11.2013  11,3    9,6    07:38    13,3    13:49  11,0    9,3    07:38    13,0    13:49  98,0    98    00:00    98    00:00  1007,1    1003    18:24    1010    06:09  9,4  1,1  13,7  
  09.11.2013  9,8    7,7    07:18    12,3    12:28  4,7    1,1    15:05    11,0    00:04  72,0    49    14:52    98    00:00  1008,7    1003    00:00    1013    10:02  0,0  4,3  14,8  
  10.11.2013  7,3    4,8    23:25    9,0    00:00  5,0    2,8    18:41    7,1    09:44  86,1    70    15:24    98    06:20  1010,9    1003    05:26    1025    23:58  2,1  2,8  16,2  
  11.11.2013  5,2    0,4    07:35    10,0    14:37  3,4    0,1    07:35    7,4    11:21  89,2    72    15:17    98    05:38  1029,8    1025    00:00    1032    09:26  0,0  1,7  10,4  
  12.11.2013  6,6    3,5    01:51    9,7    12:45  4,4    1,6    13:17    8,0    23:59  86,9    58    13:17    98    19:31  1027,3    1025    18:38    1030    00:25  1,9  2,2  10,4  
  13.11.2013  6,3    2,6    08:09    10,7    14:42  5,6    2,3    08:09    9,6    13:18  95,8    80    14:36    98    00:00  1031,7    1028    00:00    1034    08:38  0,0  0,7  5,8  
  14.11.2013  5,0    2,4    07:20    7,3    13:57  4,4    2,1    07:20    6,1    11:50  96,1    87    14:11    98    00:00  1022,7    1019    13:53    1030    00:00  0,0  1,3  10,1  
  15.11.2013  6,6    0,8    23:59    10,1    13:15  4,5    0,1    23:59    7,1    10:35  87,4    61    14:14    98    00:00  1027,9    1022    00:00    1034    23:59  0,0  1,6  16,2  
  16.11.2013  1,6    -1,2    07:42    5,7    13:30  0,6    -1,5    07:42    3,5    11:21  93,8    78    14:05    98    02:37  1033,0    1031    23:59    1035    00:09  0,0  0,6  6,8  
  17.11.2013  3,6    0,8    00:42    6,3    13:54  2,6    0,5    00:42    5,4    12:11  94,0    82    14:35    98    00:00  1026,4    1021    21:37    1031    00:00  0,0  0,7  7,6  
  18.11.2013  5,5    4,2    00:00    7,0    13:22  3,4    1,3    23:34    5,4    11:35  86,5    75    16:05    97    00:00  1013,8    1011    17:37    1021    00:00  0,0  0,8  7,9  
  19.11.2013  5,9    4,4    07:10    7,5    11:08  3,8    1,4    00:00    6,6    21:22  86,7    73    11:27    98    18:55  1009,2    1007    03:53    1011    00:00  0,0  1,6  15,8  
  20.11.2013  4,8    1,6    08:20    7,2    13:47  1,3    -3,0    22:01    5,7    00:00  79,3    58    22:01    97    09:26  1007,4    1000    23:21    1012    08:07  0,0  3,4  17,6  
  21.11.2013  4,7    3,1    23:58    7,3    12:45  0,0    -2,4    00:30    2,3    15:13  72,3    62    00:24    89    23:59  1003,6    999    00:36    1009    23:59  0,9  3,8  17,3  
  22.11.2013  4,2    2,9    01:19    5,4    23:59  1,0    -0,3    07:13    2,9    23:59  80,0    72    13:18    89    00:00  1012,4    1008    01:07    1017    21:38  0,0  4,7  20,2  
  23.11.2013  6,1    4,8    23:58    7,7    13:15  3,8    2,5    23:58    5,1    13:15  85,3    82    13:29    89    08:09  1019,3    1016    00:00    1022    20:58  0,0  3,3  14,0  
  24.11.2013  4,5    1,4    05:08    7,0    14:49  3,1    0,2    05:08    6,6    14:40  91,2    77    18:01    98    10:46  1024,8    1021    00:00    1031    23:35  0,0  1,8  14,0  
  25.11.2013  3,9    -0,2    22:46    6,4    12:43  2,3    -1,3    22:40    4,0    10:10  89,9    77    13:05    97    04:29  1031,8    1029    01:20    1036    22:51  1,1  2,0  12,6  
  26.11.2013  0,6    -2,8    06:24    3,8    14:14  0,0    -3,1    06:24    3,0    13:09  96,0    90    14:52    98    03:19  1036,4    1035    16:20    1038    08:35  0,0  0,2  7,9  
  27.11.2013  3,1    1,9    04:19    4,6    14:02  0,9    0,1    20:45    2,1    01:17  86,0    76    14:36    98    00:00  1035,2    1035    01:35    1036    00:00  0,0  1,9  29,5  
  28.11.2013  6,4    4,0    00:00    8,0    18:52  5,8    0,8    00:00    7,7    18:52  96,0    80    00:00    98    05:28  1032,9    1031    14:05    1035    00:00  0,7  0,8  6,8  
  29.11.2013  6,8    4,7    22:09    8,7    13:47  4,8    3,3    21:29    7,2    17:53  87,3    73    13:21    96    00:00  1023,8    1015    18:04    1032    00:00  0,0  2,9  23,8  
  30.11.2013  5,6    3,8    23:59    7,8    14:06  4,6    2,5    02:08    6,5    12:36  93,0    84    15:35    98    20:32  1021,3    1015    01:51    1028    23:59  0,0  2,4  15,8  
 
  Gesamt  6,6  -2,8            15,9            4,7  -3,1            14,8            88,2  49            98            1017,2  984            1038            65,3  2,3  29,5  
 
  Mittelwert  6,6  4,0            9,3            4,7  2,0            7,6            88,2  73,7            96,9            1017,2  1012,8            1021,7            2,2  2,3  14,0  
  Minimum  0,6  -2,8            3,8            0,0  -3,1            2,1            72,0  49,0            89,0            991,2  984,0            1000,0            0,0  0,2  5,8  
  Maximum  13,9  11,4            15,9            12,0  11,1            14,8            98,0  98,0            98,0            1036,4  1035,0            1038,0            9,6  4,7  29,5  

  Heie Tage    Tmax >=30C     0  
  Sommertage    Tmax >=25C     0  
  Warme Tage    Tmax >=20C     0  
  Kalte Tage    Tmax  <10C     18  
  Frosttage    Tmin  <0C     3  
  Eistage    Tmax  <0C     0  
  Regentage > 0 mm    13  
  Regentage > 2 mm    9  
  Regentage > 10 mm    0  
  Regentage > 20 mm    0